Главная страница
METAR-TAF:

METAR-TAF

Аэропорты :

Чорлу, Турция

широта: 41-08N, долгота: 027-55E, высота над уровнем моря: 173 м

Текущие метеонаблюдения

Эта сводка был подготовлена 20 минут назад, в 02:50 UTC
Ветер 6 Узел от северно-северо-западный
Температура 21°C
Влажность 100%
Давление 1010 hPa
Видимость 10 км и более
Нет облачности ниже 1500 м, и нет кучево-дождевой облачности

METAR: LTBU 170250Z 34006KT CAVOK 21/21 Q1010 RMK RWY23 35006KT

Время: 06:10 (03:10 UTC)

Прогноз

Эта сводка был подготовлена 4 часа и 30 минут назад, в 22:40 UTC
Прогноз действительный с 17-го 00 UTC до 17-го 24 UTC
Ветер 8 Узел от северо-северо-восточный
Видимость 10 км и более
Отдельные облака на высоте 3200 фута
временами
С 17-го 01 UTC до 17-го 04 UTC
Видимость: 4000 м
дымка

TAF: LTBU 162240Z 1700/1724 03008KT 9999 SCT032 TEMPO 1701/1704 4000 BR

Метеонаблюдения и прогнозы для более 4000 аэропортов (сводки METAR и TAF).

Имеющиеся станции представлены на карте желтыми и красными точками.

Чтобы увидеть название станции, наведите на нее мышь.

Затем щелкните, чтобы увидеть метеонаблюдения и метеопрогнозы.

Управление картой: чтобы увеличить масштаб, щелкните зеленые кнопки с черным крестиком; чтобы уменьшить масштаб, щелкните зеленую кнопку с тире; для просмотра соседних карт щелкайте зеленые стрелки.


METAR-TAF: